Airfield :
LOGIN :

Register | Disclaimer

   EN    FR    IT 

 










Legend :    VFR   Marginal VFR   IFR   Intensive IFR   Very Intensive IFR
Visi :
Ceiling :
>= 8 km
>= 3000ft
5 to 8 km
1000 to 3000 ft
1500m to 5 km
500 to 1000 ft
800 to 1500m
200 to 500 ft
< 800m
< 200 ft
Symbols :   Thunderstorms  Fog  Heavy snow  Heavy precipitations  Wind > 20 kt
SIGMETs :     Misc.  Thunderstorms  Icing  Turbulence  Mountain Waves  Volcanic Ashes







- Airport Elevation : 256 ft
- IATA code : CFR
- Download approach charts


LFRK - Caen

CURRENT METAR :
  • 212300Z AUTO 19006KT CAVOK 21/16 Q1005

EXPIRED METARs :
  • 212230Z AUTO 18005KT CAVOK 21/14 Q1006
  • 212200Z AUTO 12005KT CAVOK 21/14 Q1006
  • 212130Z AUTO 11007KT CAVOK 21/15 Q1006
  • 212100Z AUTO 12005KT CAVOK 21/14 Q1006
  • 212030Z AUTO 12006KT CAVOK 22/14 Q1006

TAF TAF LFRK
Valid from the 21 at 15:00 until the 22 at 00:00 UTC


211400Z 2115/2124 17013KT CAVOK
TEMPO 2116/2124 5000 SHRA SCT060CB
PROB30
TEMPO 2116/2124 17015G30KT 3000 TSRA BKN050CB
Met : +33 2 31 26 68 11
No reported NOTAMs for that airfield.



MET'MAP, your aeronautical weather chart ! - Copyright ORBIFLY December 2007 - Disclaimer

ORBIFLY MET'MAP TEAM :

Programming & Development : Alexandra Zaïnal
Concept & Development : Baudouin d'Aumeries
Co-Development & Prog : Marc-Olivier Méhu
Technical & hardware support : Manuel Goepfert

Contact : metmap@orbifly.com




SOURCES & CREDITS :

   NOAA